Time;durP1;ratioP1;P1;durP2;ratioP2;P2;SDS_P1;SDS_P2;PMS_P1;PMS_P2;Temp;Humidity;BMP_temperature;BMP_pressure;BME280_temperature;BME280_humidity;BME280_pressure;Samples;Min_cycle;Max_cycle;Signal;HPM_P1;HPM_P2
2024/04/07 00:02:04;;;;;;;;;;;;;;;;;;5082991;28;19912;-64
2024/04/07 00:04:29;;;;;;;;;;;;;;;;;;5082563;28;19955;-64
2024/04/07 00:06:55;;;;;;;;;;;;;;;;;;5084225;28;20002;-65
2024/04/07 00:09:20;;;;;;;;;;;;;;;;;;5083590;28;19931;-64
2024/04/07 00:11:45;;;;;;;;;;;;;;;;;;5082846;28;19916;-64
2024/04/07 00:14:10;;;;;;;;;;;;;;;;;;5083616;28;19908;-64
2024/04/07 00:16:35;;;;;;;;;;;;;;;;;;5084684;28;19970;-64
2024/04/07 00:19:01;;;;;;;;;;;;;;;;;;5083146;28;19939;-64
2024/04/07 00:21:27;;;;;;;;;;;;;;;;;;5085207;28;19923;-64
2024/04/07 00:23:53;;;;;;;;;;;;;;;;;;5083729;28;19908;-64
2024/04/07 00:26:18;;;;;;;;;;;;;;;;;;5083229;28;19948;-64
2024/04/07 00:28:44;;;;;;;;;;;;;;;;;;5085332;28;20385;-64
2024/04/07 00:31:09;;;;;;;;;;;;;;;;;;5082984;28;21436;-64
2024/04/07 00:33:34;;;;;;;;;;;;;;;;;;5084886;28;19919;-64
2024/04/07 00:35:59;;;;;;;;;;;;;;;;;;5085724;28;19912;-64
2024/04/07 00:38:24;;;;;;;;;;;;;;;;;;5088196;28;20006;-64
2024/04/07 00:40:49;;;;;;;;;;;;;;;;;;5092541;28;19924;-64
2024/04/07 00:43:14;;;;;;;;;;;;;;;;;;5092618;28;19912;-64
2024/04/07 00:45:39;;;;;;;;;;;;;;;;;;5092567;28;19953;-64
2024/04/07 00:48:04;;;;;;;;;;;;;;;;;;5076750;28;19916;-64
2024/04/07 00:50:30;;;;;;;;;;;;;;;;;;5090398;28;20003;-64
2024/04/07 00:52:55;;;;;;;;;;;;;;;;;;5092329;28;19915;-64
2024/04/07 00:55:20;;;;;;;;;;;;;;;;;;5092742;28;19915;-60
2024/04/07 00:57:45;;;;;;;;;;;;;;;;;;5092217;28;19923;-61
2024/04/07 01:00:10;;;;;;;;;;;;;;;;;;5092350;28;19960;-61
2024/04/07 01:02:35;;;;;;;;;;;;;;;;;;5091927;28;20012;-61
2024/04/07 01:05:00;;;;;;;;;;;;;;;;;;5089565;28;19927;-61
2024/04/07 01:07:25;;;;;;;;;;;;;;;;;;5073670;28;19918;-60
2024/04/07 01:09:51;;;;;;;;;;;;;;;;;;5089853;28;19915;-60
2024/04/07 01:12:16;;;;;;;;;;;;;;;;;;5092559;28;19919;-60
2024/04/07 01:14:41;;;;;;;;;;;;;;;;;;5074615;28;20360;-61
2024/04/07 01:17:06;;;;;;;;;;;;;;;;;;5073139;28;20361;-61
2024/04/07 01:19:31;;;;;;;;;;;;;;;;;;5073922;28;19913;-61
2024/04/07 01:21:56;;;;;;;;;;;;;;;;;;5090890;28;19911;-61
2024/04/07 01:24:21;;;;;;;;;;;;;;;;;;5091905;28;19965;-60
2024/04/07 01:26:46;;;;;;;;;;;;;;;;;;5092011;28;19908;-60
2024/04/07 01:29:11;;;;;;;;;;;;;;;;;;5089545;28;20078;-61
2024/04/07 01:31:37;;;;;;;;;;;;;;;;;;5079564;28;19923;-61
2024/04/07 01:34:02;;;;;;;;;;;;;;;;;;5090337;28;19912;-61
2024/04/07 01:36:27;;;;;;;;;;;;;;;;;;5089610;28;19963;-61
2024/04/07 01:38:52;;;;;;;;;;;;;;;;;;5076980;28;19912;-61
2024/04/07 01:41:17;;;;;;;;;;;;;;;;;;5072617;28;19924;-61
2024/04/07 01:43:42;;;;;;;;;;;;;;;;;;5083623;28;19919;-61
2024/04/07 01:46:08;;;;;;;;;;;;;;;;;;5089506;28;20288;-62
2024/04/07 01:48:33;;;;;;;;;;;;;;;;;;5072569;28;19940;-61
2024/04/07 01:50:58;;;;;;;;;;;;;;;;;;5072770;28;19924;-60
2024/04/07 01:53:23;;;;;;;;;;;;;;;;;;5085041;28;20363;-60
2024/04/07 01:55:48;;;;;;;;;;;;;;;;;;5091672;28;19911;-61
2024/04/07 01:58:13;;;;;;;;;;;;;;;;;;5091568;28;19916;-61
2024/04/07 02:00:38;;;;;;;;;;;;;;;;;;5090350;28;19908;-60
2024/04/07 02:03:03;;;;;;;;;;;;;;;;;;5091078;28;20030;-61
2024/04/07 02:05:29;;;;;;;;;;;;;;;;;;5091395;28;19912;-60
2024/04/07 02:07:54;;;;;;;;;;;;;;;;;;5091063;28;19908;-60
2024/04/07 02:10:19;;;;;;;;;;;;;;;;;;5090971;28;19912;-60
2024/04/07 02:12:44;;;;;;;;;;;;;;;;;;5079721;28;19916;-61
2024/04/07 02:15:09;;;;;;;;;;;;;;;;;;5071976;28;19944;-60
2024/04/07 02:17:35;;;;;;;;;;;;;;;;;;5072296;28;19909;-61
2024/04/07 02:20:00;;;;;;;;;;;;;;;;;;5073445;28;19923;-61
2024/04/07 02:22:25;;;;;;;;;;;;;;;;;;5072389;28;19908;-59
2024/04/07 02:24:50;;;;;;;;;;;;;;;;;;5071918;28;19957;-60
2024/04/07 02:27:17;;;;;;;;;;;;;;;;;;5074797;28;20021;-60
2024/04/07 02:29:43;;;;;;;;;;;;;;;;;;5074810;28;19918;-61
2024/04/07 02:32:08;;;;;;;;;;;;;;;;;;5089582;28;19912;-60
2024/04/07 02:34:33;;;;;;;;;;;;;;;;;;5074944;28;20269;-61
2024/04/07 02:36:58;;;;;;;;;;;;;;;;;;5071938;28;19991;-60
2024/04/07 02:39:23;;;;;;;;;;;;;;;;;;5072677;28;19913;-61
2024/04/07 02:41:49;;;;;;;;;;;;;;;;;;5089705;28;20330;-61
2024/04/07 02:44:15;;;;;;;;;;;;;;;;;;5090730;28;19912;-61
2024/04/07 02:49:24;;;;;;;;;;;;;;;;;;5090679;28;19915;-61
2024/04/07 02:51:49;;;;;;;;;;;;;;;;;;5090086;28;20283;-60
2024/04/07 02:54:15;;;;;;;;;;;;;;;;;;5090154;28;19910;-61
2024/04/07 02:56:40;;;;;;;;;;;;;;;;;;5090629;28;19915;-60
2024/04/07 02:59:05;;;;;;;;;;;;;;;;;;5090401;28;19912;-60
2024/04/07 03:01:30;;;;;;;;;;;;;;;;;;5086262;28;19962;-61
2024/04/07 03:03:55;;;;;;;;;;;;;;;;;;5090819;28;19987;-61
2024/04/07 03:06:20;;;;;;;;;;;;;;;;;;5090762;28;19916;-61
2024/04/07 03:08:45;;;;;;;;;;;;;;;;;;5090298;28;19908;-61
2024/04/07 03:11:10;;;;;;;;;;;;;;;;;;5091242;28;20058;-61
2024/04/07 03:13:35;;;;;;;;;;;;;;;;;;5094417;28;19915;-61
2024/04/07 03:16:01;;;;;;;;;;;;;;;;;;5094371;28;19919;-61
2024/04/07 03:18:26;;;;;;;;;;;;;;;;;;5088852;28;20335;-60
2024/04/07 03:20:52;;;;;;;;;;;;;;;;;;5092382;28;19934;-60
2024/04/07 03:23:17;;;;;;;;;;;;;;;;;;5094454;28;19926;-61
2024/04/07 03:25:42;;;;;;;;;;;;;;;;;;5093203;28;19958;-61
2024/04/07 03:28:07;;;;;;;;;;;;;;;;;;5086596;28;19923;-61
2024/04/07 03:30:32;;;;;;;;;;;;;;;;;;5080178;28;20371;-61
2024/04/07 03:32:58;;;;;;;;;;;;;;;;;;5077686;28;19958;-61
2024/04/07 03:35:23;;;;;;;;;;;;;;;;;;5082563;28;19954;-60
2024/04/07 03:37:50;;;;;;;;;;;;;;;;;;5094077;28;19916;-60
2024/04/07 03:40:15;;;;;;;;;;;;;;;;;;5093912;28;19928;-60
2024/04/07 03:42:41;;;;;;;;;;;;;;;;;;5094250;28;19908;-61
2024/04/07 03:45:09;;;;;;;;;;;;;;;;;;5093668;28;19969;-61
2024/04/07 03:47:34;;;;;;;;;;;;;;;;;;5094113;28;19908;-61
2024/04/07 03:49:59;;;;;;;;;;;;;;;;;;5094149;28;20280;-59
2024/04/07 03:52:24;;;;;;;;;;;;;;;;;;5091360;28;20423;-61
2024/04/07 03:54:49;;;;;;;;;;;;;;;;;;5093519;28;19908;-61
2024/04/07 03:57:14;;;;;;;;;;;;;;;;;;5093489;28;20003;-61
2024/04/07 03:59:40;;;;;;;;;;;;;;;;;;5093951;28;19912;-61
2024/04/07 04:02:05;;;;;;;;;;;;;;;;;;5093282;28;19912;-61
2024/04/07 04:04:30;;;;;;;;;;;;;;;;;;5089158;28;19908;-61
2024/04/07 04:06:55;;;;;;;;;;;;;;;;;;5093563;28;19908;-61
2024/04/07 04:09:21;;;;;;;;;;;;;;;;;;5093378;28;20003;-61
2024/04/07 04:11:46;;;;;;;;;;;;;;;;;;5093246;28;19919;-61
2024/04/07 04:14:11;;;;;;;;;;;;;;;;;;5093315;28;19912;-61
2024/04/07 04:16:36;;;;;;;;;;;;;;;;;;5093481;28;19914;-60
2024/04/07 04:19:03;;;;;;;;;;;;;;;;;;5091660;28;19947;-61
2024/04/07 04:21:28;;;;;;;;;;;;;;;;;;5075090;28;20357;-61
2024/04/07 04:23:53;;;;;;;;;;;;;;;;;;5073377;28;19908;-61
2024/04/07 04:26:18;;;;;;;;;;;;;;;;;;5076314;28;20368;-64
2024/04/07 04:28:43;;;;;;;;;;;;;;;;;;5086460;28;20376;-64
2024/04/07 04:31:09;;;;;;;;;;;;;;;;;;5092601;28;20352;-65
2024/04/07 04:33:34;;;;;;;;;;;;;;;;;;5087101;28;19935;-65
2024/04/07 04:35:59;;;;;;;;;;;;;;;;;;5093227;28;19908;-64
2024/04/07 04:38:24;;;;;;;;;;;;;;;;;;5092948;28;19920;-64
2024/04/07 04:40:49;;;;;;;;;;;;;;;;;;5089820;28;19924;-65
2024/04/07 04:43:18;;;;;;;;;;;;;;;;;;5092671;28;19977;-64
2024/04/07 04:45:43;;;;;;;;;;;;;;;;;;5081476;28;20340;-64
2024/04/07 04:48:09;;;;;;;;;;;;;;;;;;5073785;28;20361;-64
2024/04/07 04:50:34;;;;;;;;;;;;;;;;;;5073612;28;20361;-64
2024/04/07 04:52:59;;;;;;;;;;;;;;;;;;5073838;28;20349;-64
2024/04/07 04:55:24;;;;;;;;;;;;;;;;;;5073942;28;20303;-65
2024/04/07 04:57:49;;;;;;;;;;;;;;;;;;5073471;28;19920;-64
2024/04/07 05:00:14;;;;;;;;;;;;;;;;;;5073717;28;19983;-64
2024/04/07 05:02:39;;;;;;;;;;;;;;;;;;5078224;28;19916;-65
2024/04/07 05:05:04;;;;;;;;;;;;;;;;;;5073801;28;20293;-64
2024/04/07 05:07:30;;;;;;;;;;;;;;;;;;5073452;28;20345;-64
2024/04/07 05:09:55;;;;;;;;;;;;;;;;;;5092176;28;20937;-64
2024/04/07 05:12:20;;;;;;;;;;;;;;;;;;5091961;28;19916;-65
2024/04/07 05:14:45;;;;;;;;;;;;;;;;;;5075980;28;19959;-64
2024/04/07 05:17:10;;;;;;;;;;;;;;;;;;5073379;28;19915;-65
2024/04/07 05:19:35;;;;;;;;;;;;;;;;;;5088340;28;19908;-65
2024/04/07 05:22:00;;;;;;;;;;;;;;;;;;5091285;28;20375;-65
2024/04/07 05:24:28;;;;;;;;;;;;;;;;;;5082985;28;20281;-64
2024/04/07 05:26:53;;;;;;;;;;;;;;;;;;5091785;28;19908;-65
2024/04/07 05:29:19;;;;;;;;;;;;;;;;;;5083032;28;19953;-65
2024/04/07 05:31:45;;;;;;;;;;;;;;;;;;5072759;28;19954;-65
2024/04/07 05:34:10;;;;;;;;;;;;;;;;;;5088731;28;20326;-65
2024/04/07 05:36:36;;;;;;;;;;;;;;;;;;5091919;28;20404;-64
2024/04/07 05:39:01;;;;;;;;;;;;;;;;;;5092126;28;20417;-65
2024/04/07 05:41:26;;;;;;;;;;;;;;;;;;5091601;28;21174;-65
2024/04/07 05:43:51;;;;;;;;;;;;;;;;;;5090295;28;20372;-65
2024/04/07 05:46:16;;;;;;;;;;;;;;;;;;5091432;28;19908;-65
2024/04/07 05:48:41;;;;;;;;;;;;;;;;;;5090116;28;19912;-65
2024/04/07 05:51:06;;;;;;;;;;;;;;;;;;5091709;28;19912;-64
2024/04/07 05:53:31;;;;;;;;;;;;;;;;;;5091202;28;19908;-64
2024/04/07 05:55:57;;;;;;;;;;;;;;;;;;5091731;28;19912;-65
2024/04/07 05:58:22;;;;;;;;;;;;;;;;;;5091579;28;19920;-65
2024/04/07 06:00:47;;;;;;;;;;;;;;;;;;5091345;28;20439;-65
2024/04/07 06:03:12;;;;;;;;;;;;;;;;;;5091702;28;20415;-65
2024/04/07 06:05:38;;;;;;;;;;;;;;;;;;5091516;28;20296;-64
2024/04/07 06:08:03;;;;;;;;;;;;;;;;;;5091421;28;19908;-65
2024/04/07 06:10:28;;;;;;;;;;;;;;;;;;5091204;28;20268;-65
2024/04/07 06:12:53;;;;;;;;;;;;;;;;;;5090837;28;19954;-65
2024/04/07 06:15:21;;;;;;;;;;;;;;;;;;5090871;28;19908;-65
2024/04/07 06:17:46;;;;;;;;;;;;;;;;;;5074945;28;19995;-64
2024/04/07 06:20:11;;;;;;;;;;;;;;;;;;5083830;28;20074;-65
2024/04/07 06:22:37;;;;;;;;;;;;;;;;;;5072114;28;20422;-65
2024/04/07 06:25:02;;;;;;;;;;;;;;;;;;5073808;28;19909;-65
2024/04/07 06:27:27;;;;;;;;;;;;;;;;;;5076780;28;20007;-65
2024/04/07 06:29:58;;;;;;;;;;;;;;;;;;5076831;28;19912;-65
2024/04/07 06:32:24;;;;;;;;;;;;;;;;;;5080759;28;19916;-65
2024/04/07 06:34:49;;;;;;;;;;;;;;;;;;5082763;28;19919;-65
2024/04/07 06:37:14;;;;;;;;;;;;;;;;;;5083573;28;19951;-65
2024/04/07 06:39:39;;;;;;;;;;;;;;;;;;5083067;28;19912;-65
2024/04/07 06:42:04;;;;;;;;;;;;;;;;;;5088425;28;19928;-65
2024/04/07 06:44:29;;;;;;;;;;;;;;;;;;5081172;28;19916;-65
2024/04/07 06:46:54;;;;;;;;;;;;;;;;;;5071325;28;19944;-65
2024/04/07 06:49:19;;;;;;;;;;;;;;;;;;5071732;28;19913;-65
2024/04/07 06:51:45;;;;;;;;;;;;;;;;;;5071702;28;20290;-65
2024/04/07 06:54:10;;;;;;;;;;;;;;;;;;5071615;28;19912;-65
2024/04/07 06:56:35;;;;;;;;;;;;;;;;;;5071943;28;20357;-65
2024/04/07 06:59:00;;;;;;;;;;;;;;;;;;5074239;28;19944;-65
2024/04/07 07:01:25;;;;;;;;;;;;;;;;;;5082751;28;19912;-65
2024/04/07 07:03:51;;;;;;;;;;;;;;;;;;5080922;28;19935;-65
2024/04/07 07:06:17;;;;;;;;;;;;;;;;;;5079146;28;19912;-65
2024/04/07 07:08:42;;;;;;;;;;;;;;;;;;5078346;28;19919;-66
2024/04/07 07:11:08;;;;;;;;;;;;;;;;;;5080672;28;20003;-65
2024/04/07 07:13:38;;;;;;;;;;;;;;;;;;5084859;28;19912;-65
2024/04/07 07:16:04;;;;;;;;;;;;;;;;;;5079339;28;20361;-65
2024/04/07 07:18:29;;;;;;;;;;;;;;;;;;5080306;28;20003;-65
2024/04/07 07:20:54;;;;;;;;;;;;;;;;;;5085664;28;20450;-65
2024/04/07 07:23:19;;;;;;;;;;;;;;;;;;5073289;28;19912;-65
2024/04/07 07:25:44;;;;;;;;;;;;;;;;;;5085083;28;19959;-65
2024/04/07 07:28:09;;;;;;;;;;;;;;;;;;5079824;28;19938;-64
2024/04/07 07:30:37;;;;;;;;;;;;;;;;;;5088696;28;19912;-64
2024/04/07 07:33:03;;;;;;;;;;;;;;;;;;5087627;28;19912;-65
2024/04/07 07:35:28;;;;;;;;;;;;;;;;;;5083187;28;19919;-66
2024/04/07 07:37:53;;;;;;;;;;;;;;;;;;5081110;28;19918;-65
2024/04/07 07:40:18;;;;;;;;;;;;;;;;;;5081670;28;19928;-66
2024/04/07 07:42:43;;;;;;;;;;;;;;;;;;5076274;28;20559;-65
2024/04/07 07:45:09;;;;;;;;;;;;;;;;;;5079157;28;19962;-65
2024/04/07 07:47:34;;;;;;;;;;;;;;;;;;5081497;28;19908;-65
2024/04/07 07:49:59;;;;;;;;;;;;;;;;;;5080004;28;19958;-66
2024/04/07 07:52:24;;;;;;;;;;;;;;;;;;5082180;28;19939;-65
2024/04/07 07:54:49;;;;;;;;;;;;;;;;;;5078108;28;19995;-65
2024/04/07 07:57:15;;;;;;;;;;;;;;;;;;5076469;28;19924;-65
2024/04/07 07:59:40;;;;;;;;;;;;;;;;;;5087555;28;20035;-65
2024/04/07 08:02:05;;;;;;;;;;;;;;;;;;5085125;28;19923;-65
2024/04/07 08:04:30;;;;;;;;;;;;;;;;;;5083276;28;19920;-64
2024/04/07 08:06:56;;;;;;;;;;;;;;;;;;5078628;28;19920;-64
2024/04/07 08:09:23;;;;;;;;;;;;;;;;;;5082241;28;19916;-64
2024/04/07 08:11:48;;;;;;;;;;;;;;;;;;5082859;28;20453;-64
2024/04/07 08:14:14;;;;;;;;;;;;;;;;;;5090558;28;19952;-64
2024/04/07 08:16:39;;;;;;;;;;;;;;;;;;5090218;28;20292;-65
2024/04/07 08:19:04;;;;;;;;;;;;;;;;;;5081901;28;19974;-64
2024/04/07 08:21:29;;;;;;;;;;;;;;;;;;5087893;28;19920;-64
2024/04/07 08:23:55;;;;;;;;;;;;;;;;;;5089673;28;19916;-64
2024/04/07 08:26:20;;;;;;;;;;;;;;;;;;5091556;28;19912;-64
2024/04/07 08:28:45;;;;;;;;;;;;;;;;;;5089412;28;19993;-64
2024/04/07 08:31:10;;;;;;;;;;;;;;;;;;5076782;28;20287;-64
2024/04/07 08:33:35;;;;;;;;;;;;;;;;;;5081144;28;19924;-64
2024/04/07 08:36:00;;;;;;;;;;;;;;;;;;5079135;28;20039;-64
2024/04/07 08:38:25;;;;;;;;;;;;;;;;;;5084772;28;19951;-64
2024/04/07 08:40:50;;;;;;;;;;;;;;;;;;5086803;28;19936;-64
2024/04/07 08:43:15;;;;;;;;;;;;;;;;;;5077642;28;20288;-64
2024/04/07 08:45:41;;;;;;;;;;;;;;;;;;5081791;28;20343;-64
2024/04/07 08:48:06;;;;;;;;;;;;;;;;;;5072487;28;19916;-64
2024/04/07 08:50:31;;;;;;;;;;;;;;;;;;5073291;28;20366;-65
2024/04/07 08:52:57;;;;;;;;;;;;;;;;;;5073095;28;20525;-64
2024/04/07 08:55:22;;;;;;;;;;;;;;;;;;5090954;28;19912;-65
2024/04/07 08:57:47;;;;;;;;;;;;;;;;;;5083563;28;19926;-64
2024/04/07 09:00:12;;;;;;;;;;;;;;;;;;5077640;28;19913;-64
2024/04/07 09:02:38;;;;;;;;;;;;;;;;;;5080188;28;19916;-64
2024/04/07 09:05:03;;;;;;;;;;;;;;;;;;5080805;28;19920;-64
2024/04/07 09:07:28;;;;;;;;;;;;;;;;;;5080857;28;19942;-64
2024/04/07 09:09:53;;;;;;;;;;;;;;;;;;5080550;28;20335;-64
2024/04/07 09:12:18;;;;;;;;;;;;;;;;;;5084811;28;19999;-64
2024/04/07 09:14:45;;;;;;;;;;;;;;;;;;5090470;28;20292;-64
2024/04/07 09:17:10;;;;;;;;;;;;;;;;;;5093074;28;19952;-64
2024/04/07 09:19:35;;;;;;;;;;;;;;;;;;5083100;28;20015;-65
2024/04/07 09:22:00;;;;;;;;;;;;;;;;;;5090193;28;19923;-65
2024/04/07 09:24:25;;;;;;;;;;;;;;;;;;5092009;28;19919;-64
2024/04/07 09:26:50;;;;;;;;;;;;;;;;;;5092022;28;19919;-65
2024/04/07 09:29:15;;;;;;;;;;;;;;;;;;5090184;28;20011;-65
2024/04/07 09:31:41;;;;;;;;;;;;;;;;;;5092457;28;19973;-64
2024/04/07 09:34:06;;;;;;;;;;;;;;;;;;5092429;28;19930;-64
2024/04/07 09:36:31;;;;;;;;;;;;;;;;;;5092348;28;20365;-64
2024/04/07 09:38:56;;;;;;;;;;;;;;;;;;5092103;28;20301;-65
2024/04/07 09:41:21;;;;;;;;;;;;;;;;;;5092437;28;19924;-64
2024/04/07 09:43:46;;;;;;;;;;;;;;;;;;5092181;28;19960;-65
2024/04/07 09:46:11;;;;;;;;;;;;;;;;;;5091719;28;19916;-65
2024/04/07 09:48:36;;;;;;;;;;;;;;;;;;5091392;28;19969;-64
2024/04/07 09:51:02;;;;;;;;;;;;;;;;;;5089571;28;19965;-64
2024/04/07 09:53:27;;;;;;;;;;;;;;;;;;5092760;28;20445;-65
2024/04/07 09:55:52;;;;;;;;;;;;;;;;;;5090810;28;19999;-64
2024/04/07 09:58:17;;;;;;;;;;;;;;;;;;5092396;28;19912;-65
2024/04/07 10:00:42;;;;;;;;;;;;;;;;;;5091631;28;19916;-65
2024/04/07 10:03:08;;;;;;;;;;;;;;;;;;5091303;28;19934;-65
2024/04/07 10:05:33;;;;;;;;;;;;;;;;;;5092078;28;19947;-64
2024/04/07 10:07:58;;;;;;;;;;;;;;;;;;5092405;28;19912;-65
2024/04/07 10:10:25;;;;;;;;;;;;;;;;;;5091530;28;19909;-64
2024/04/07 10:12:50;;;;;;;;;;;;;;;;;;5087608;28;20011;-64
2024/04/07 10:15:16;;;;;;;;;;;;;;;;;;5091791;28;20358;-65
2024/04/07 10:17:41;;;;;;;;;;;;;;;;;;5091419;28;19961;-64
2024/04/07 10:20:06;;;;;;;;;;;;;;;;;;5091531;28;19969;-65
2024/04/07 10:22:31;;;;;;;;;;;;;;;;;;5091031;28;19912;-65
2024/04/07 10:24:58;;;;;;;;;;;;;;;;;;5088982;28;19912;-65
2024/04/07 10:27:23;;;;;;;;;;;;;;;;;;5091174;28;19912;-65
2024/04/07 10:29:48;;;;;;;;;;;;;;;;;;5089975;28;20020;-65
2024/04/07 10:32:13;;;;;;;;;;;;;;;;;;5088469;28;19920;-65
2024/04/07 10:34:38;;;;;;;;;;;;;;;;;;5084721;28;19951;-65
2024/04/07 10:37:04;;;;;;;;;;;;;;;;;;5084058;28;19965;-65
2024/04/07 10:39:29;;;;;;;;;;;;;;;;;;5079676;28;19919;-65
2024/04/07 10:41:54;;;;;;;;;;;;;;;;;;5075309;28;21243;-64
2024/04/07 10:44:19;;;;;;;;;;;;;;;;;;5080385;28;20351;-65
2024/04/07 10:46:44;;;;;;;;;;;;;;;;;;5080651;28;19986;-65
2024/04/07 10:49:09;;;;;;;;;;;;;;;;;;5081601;28;20013;-65
2024/04/07 10:51:34;;;;;;;;;;;;;;;;;;5078443;28;20376;-65
2024/04/07 10:54:00;;;;;;;;;;;;;;;;;;5079167;28;19916;-65
2024/04/07 10:56:25;;;;;;;;;;;;;;;;;;5074704;28;20283;-65
2024/04/07 10:58:50;;;;;;;;;;;;;;;;;;5085943;28;19969;-65
2024/04/07 11:01:15;;;;;;;;;;;;;;;;;;5082326;28;19978;-64
2024/04/07 11:03:40;;;;;;;;;;;;;;;;;;5081823;28;19927;-65
2024/04/07 11:06:05;;;;;;;;;;;;;;;;;;5083059;28;19966;-65
2024/04/07 11:08:30;;;;;;;;;;;;;;;;;;5073078;28;20659;-65
2024/04/07 11:10:56;;;;;;;;;;;;;;;;;;5084240;28;19975;-65
2024/04/07 11:13:21;;;;;;;;;;;;;;;;;;5080747;28;19916;-65
2024/04/07 11:15:46;;;;;;;;;;;;;;;;;;5082432;28;20035;-65
2024/04/07 11:18:11;;;;;;;;;;;;;;;;;;5083177;28;19923;-65
2024/04/07 11:20:37;;;;;;;;;;;;;;;;;;5080307;28;19997;-65
2024/04/07 11:23:02;;;;;;;;;;;;;;;;;;5072924;28;20364;-65
2024/04/07 11:25:27;;;;;;;;;;;;;;;;;;5071355;28;19958;-66
2024/04/07 11:27:52;;;;;;;;;;;;;;;;;;5081963;28;19916;-65
2024/04/07 11:30:17;;;;;;;;;;;;;;;;;;5090581;28;19920;-65
2024/04/07 11:32:43;;;;;;;;;;;;;;;;;;5092471;28;19916;-65
2024/04/07 11:35:08;;;;;;;;;;;;;;;;;;5092766;28;20006;-65
2024/04/07 11:37:33;;;;;;;;;;;;;;;;;;5087979;28;20368;-65
2024/04/07 11:39:58;;;;;;;;;;;;;;;;;;5094188;28;19913;-65
2024/04/07 11:42:23;;;;;;;;;;;;;;;;;;5093777;28;20373;-65
2024/04/07 11:44:49;;;;;;;;;;;;;;;;;;5086779;28;19923;-65
2024/04/07 11:47:14;;;;;;;;;;;;;;;;;;5092367;28;19931;-65
2024/04/07 11:49:39;;;;;;;;;;;;;;;;;;5094066;28;19919;-65
2024/04/07 11:52:04;;;;;;;;;;;;;;;;;;5094386;28;20027;-66
2024/04/07 11:54:29;;;;;;;;;;;;;;;;;;5090472;28;20295;-65
2024/04/07 11:56:54;;;;;;;;;;;;;;;;;;5094238;28;19920;-65
2024/04/07 11:59:19;;;;;;;;;;;;;;;;;;5094005;28;19919;-65
2024/04/07 12:01:45;;;;;;;;;;;;;;;;;;5093113;28;19912;-65
2024/04/07 12:04:10;;;;;;;;;;;;;;;;;;5093985;28;19912;-65
2024/04/07 12:06:35;;;;;;;;;;;;;;;;;;5093938;28;19912;-66
2024/04/07 12:09:00;;;;;;;;;;;;;;;;;;5093796;28;19912;-65
2024/04/07 12:11:25;;;;;;;;;;;;;;;;;;5093021;28;19974;-66
2024/04/07 12:13:50;;;;;;;;;;;;;;;;;;5089913;28;19964;-65
2024/04/07 12:16:15;;;;;;;;;;;;;;;;;;5094348;28;19915;-66
2024/04/07 12:18:40;;;;;;;;;;;;;;;;;;5086574;28;20420;-65
2024/04/07 12:21:06;;;;;;;;;;;;;;;;;;5094687;28;19908;-65
2024/04/07 12:23:31;;;;;;;;;;;;;;;;;;5088928;28;20432;-66
2024/04/07 12:25:56;;;;;;;;;;;;;;;;;;5073976;28;19909;-65
2024/04/07 12:28:21;;;;;;;;;;;;;;;;;;5074155;28;19920;-65
2024/04/07 12:30:50;;;;;;;;;;;;;;;;;;5090842;28;20319;-65
2024/04/07 12:33:15;;;;;;;;;;;;;;;;;;5083236;28;19916;-66
2024/04/07 12:35:40;;;;;;;;;;;;;;;;;;5094381;28;19908;-61
2024/04/07 12:38:05;;;;;;;;;;;;;;;;;;5091588;28;19924;-61
2024/04/07 12:40:30;;;;;;;;;;;;;;;;;;5092290;28;20384;-61
2024/04/07 12:42:55;;;;;;;;;;;;;;;;;;5089207;28;20229;-61
2024/04/07 12:45:23;;;;;;;;;;;;;;;;;;5072098;28;20361;-61
2024/04/07 12:47:48;;;;;;;;;;;;;;;;;;5073757;28;19908;-62
2024/04/07 12:50:13;;;;;;;;;;;;;;;;;;5091030;28;20338;-61
2024/04/07 12:52:38;;;;;;;;;;;;;;;;;;5075245;28;20356;-61
2024/04/07 12:55:03;;;;;;;;;;;;;;;;;;5087520;28;19916;-62
2024/04/07 12:57:28;;;;;;;;;;;;;;;;;;5080089;28;20022;-62
2024/04/07 12:59:54;;;;;;;;;;;;;;;;;;5093616;28;19912;-61
2024/04/07 13:02:19;;;;;;;;;;;;;;;;;;5093741;28;19908;-62
2024/04/07 13:04:46;;;;;;;;;;;;;;;;;;5092030;28;19908;-62
2024/04/07 13:07:11;;;;;;;;;;;;;;;;;;5082883;28;19951;-61
2024/04/07 13:09:36;;;;;;;;;;;;;;;;;;5093294;28;19947;-62
2024/04/07 13:12:01;;;;;;;;;;;;;;;;;;5084514;28;19920;-61
2024/04/07 13:14:26;;;;;;;;;;;;;;;;;;5084765;28;19915;-61
2024/04/07 13:16:51;;;;;;;;;;;;;;;;;;5085455;28;19919;-61
2024/04/07 13:19:17;;;;;;;;;;;;;;;;;;5087714;28;19912;-62
2024/04/07 13:21:42;;;;;;;;;;;;;;;;;;5091553;28;19923;-62
2024/04/07 13:24:07;;;;;;;;;;;;;;;;;;5088560;28;19938;-62
2024/04/07 13:26:32;;;;;;;;;;;;;;;;;;5079951;28;19923;-62
2024/04/07 13:28:57;;;;;;;;;;;;;;;;;;5090323;28;20153;-61
2024/04/07 13:31:22;;;;;;;;;;;;;;;;;;5091801;28;19926;-62
2024/04/07 13:33:47;;;;;;;;;;;;;;;;;;5091158;28;19969;-61
2024/04/07 13:36:13;;;;;;;;;;;;;;;;;;5076319;28;19931;-62
2024/04/07 13:38:38;;;;;;;;;;;;;;;;;;5092095;28;19977;-62
2024/04/07 13:41:03;;;;;;;;;;;;;;;;;;5092000;28;19966;-62
2024/04/07 13:43:28;;;;;;;;;;;;;;;;;;5080948;28;20445;-60
2024/04/07 13:45:53;;;;;;;;;;;;;;;;;;5089619;28;20003;-61
2024/04/07 13:48:19;;;;;;;;;;;;;;;;;;5085732;28;19913;-62
2024/04/07 13:50:47;;;;;;;;;;;;;;;;;;5091037;28;19913;-60
2024/04/07 13:53:12;;;;;;;;;;;;;;;;;;5091328;28;19963;-62
2024/04/07 13:55:37;;;;;;;;;;;;;;;;;;5091576;28;19974;-62
2024/04/07 13:58:02;;;;;;;;;;;;;;;;;;5091392;28;19916;-63
2024/04/07 14:00:28;;;;;;;;;;;;;;;;;;5088648;28;19974;-62
2024/04/07 14:02:53;;;;;;;;;;;;;;;;;;5076330;28;19965;-60
2024/04/07 14:05:18;;;;;;;;;;;;;;;;;;5091387;28;19970;-61
2024/04/07 14:07:44;;;;;;;;;;;;;;;;;;5091611;28;19919;-60
2024/04/07 14:10:09;;;;;;;;;;;;;;;;;;5091183;28;19919;-62
2024/04/07 14:12:35;;;;;;;;;;;;;;;;;;5091727;28;19916;-61
2024/04/07 14:15:00;;;;;;;;;;;;;;;;;;5091390;28;19993;-62
2024/04/07 14:17:25;;;;;;;;;;;;;;;;;;5090747;28;19915;-61
2024/04/07 14:19:50;;;;;;;;;;;;;;;;;;5086017;28;21768;-62
2024/04/07 14:22:15;;;;;;;;;;;;;;;;;;5092054;28;20562;-61
2024/04/07 14:24:40;;;;;;;;;;;;;;;;;;5090824;28;20338;-61
2024/04/07 14:27:07;;;;;;;;;;;;;;;;;;5079831;28;20327;-61
2024/04/07 14:29:32;;;;;;;;;;;;;;;;;;5081632;28;20312;-61
2024/04/07 14:31:57;;;;;;;;;;;;;;;;;;5082222;28;19924;-62
2024/04/07 14:34:22;;;;;;;;;;;;;;;;;;5080914;28;19912;-62
2024/04/07 14:36:47;;;;;;;;;;;;;;;;;;5088460;28;19922;-62
2024/04/07 14:39:12;;;;;;;;;;;;;;;;;;5084800;28;20004;-62
2024/04/07 14:41:38;;;;;;;;;;;;;;;;;;5078539;28;19982;-61
2024/04/07 14:44:03;;;;;;;;;;;;;;;;;;5081045;28;19916;-61
2024/04/07 14:46:28;;;;;;;;;;;;;;;;;;5082647;28;20014;-61
2024/04/07 14:48:53;;;;;;;;;;;;;;;;;;5078890;28;19946;-63
2024/04/07 14:51:19;;;;;;;;;;;;;;;;;;5077696;28;20011;-62
2024/04/07 14:53:45;;;;;;;;;;;;;;;;;;5083225;28;20285;-62
2024/04/07 14:56:10;;;;;;;;;;;;;;;;;;5075238;28;19916;-65
2024/04/07 14:58:35;;;;;;;;;;;;;;;;;;5080118;28;20035;-65
2024/04/07 15:01:00;;;;;;;;;;;;;;;;;;5079351;28;19923;-65
2024/04/07 15:03:25;;;;;;;;;;;;;;;;;;5085267;28;19963;-65
2024/04/07 15:05:50;;;;;;;;;;;;;;;;;;5081133;28;19924;-66
2024/04/07 15:08:15;;;;;;;;;;;;;;;;;;5070255;28;19969;-65
2024/04/07 15:10:40;;;;;;;;;;;;;;;;;;5086235;28;19995;-65
2024/04/07 15:13:06;;;;;;;;;;;;;;;;;;5083648;28;20269;-66
2024/04/07 15:15:31;;;;;;;;;;;;;;;;;;5073518;28;20443;-66
2024/04/07 15:17:56;;;;;;;;;;;;;;;;;;5079262;28;19990;-65
2024/04/07 15:20:21;;;;;;;;;;;;;;;;;;5076301;28;20356;-65
2024/04/07 15:22:48;;;;;;;;;;;;;;;;;;5078669;28;19955;-65
2024/04/07 15:25:13;;;;;;;;;;;;;;;;;;5078993;28;19966;-65
2024/04/07 15:27:38;;;;;;;;;;;;;;;;;;5078530;28;19955;-65
2024/04/07 15:30:03;;;;;;;;;;;;;;;;;;5079947;28;19912;-65
2024/04/07 15:32:28;;;;;;;;;;;;;;;;;;5079223;28;20376;-66
2024/04/07 15:34:53;;;;;;;;;;;;;;;;;;5079602;28;20418;-65
2024/04/07 15:37:18;;;;;;;;;;;;;;;;;;5082564;28;20571;-65
2024/04/07 15:39:44;;;;;;;;;;;;;;;;;;5082606;28;20331;-65
2024/04/07 15:42:09;;;;;;;;;;;;;;;;;;5078980;28;19966;-65
2024/04/07 15:44:34;;;;;;;;;;;;;;;;;;5076136;28;19916;-64
2024/04/07 15:46:59;;;;;;;;;;;;;;;;;;5076580;28;19981;-65
2024/04/07 15:49:24;;;;;;;;;;;;;;;;;;5083584;28;19916;-64
2024/04/07 15:51:50;;;;;;;;;;;;;;;;;;5076583;28;19927;-65
2024/04/07 15:54:15;;;;;;;;;;;;;;;;;;5080257;28;20033;-65
2024/04/07 15:56:40;;;;;;;;;;;;;;;;;;5080276;28;20327;-65
2024/04/07 15:59:05;;;;;;;;;;;;;;;;;;5080106;28;19941;-66
2024/04/07 16:01:30;;;;;;;;;;;;;;;;;;5078594;28;20025;-65
2024/04/07 16:03:56;;;;;;;;;;;;;;;;;;5074692;28;20391;-65
2024/04/07 16:06:21;;;;;;;;;;;;;;;;;;5078245;28;19958;-65
2024/04/07 16:08:48;;;;;;;;;;;;;;;;;;5086206;28;20287;-65
2024/04/07 16:11:14;;;;;;;;;;;;;;;;;;5086197;28;20364;-65
2024/04/07 16:13:39;;;;;;;;;;;;;;;;;;5070108;28;20280;-65
2024/04/07 16:16:04;;;;;;;;;;;;;;;;;;5080973;28;19920;-65
2024/04/07 16:18:29;;;;;;;;;;;;;;;;;;5078949;28;20384;-66
2024/04/07 16:20:54;;;;;;;;;;;;;;;;;;5091126;28;19919;-65
2024/04/07 16:23:19;;;;;;;;;;;;;;;;;;5090572;28;19923;-65
2024/04/07 16:25:45;;;;;;;;;;;;;;;;;;5086645;28;19912;-65
2024/04/07 16:28:10;;;;;;;;;;;;;;;;;;5078242;28;20291;-65
2024/04/07 16:30:35;;;;;;;;;;;;;;;;;;5077718;28;20379;-65
2024/04/07 16:33:01;;;;;;;;;;;;;;;;;;5093011;28;20283;-64
2024/04/07 16:35:26;;;;;;;;;;;;;;;;;;5084309;28;20018;-65